sensor_id;sensor_type;location;lat;lon;timestamp;P1;durP1;ratioP1;P2;durP2;ratioP2
66169;SDS011;66757;44.024;20.456;2023-05-29T00:01:51;23.35;;;15.50;;
66169;SDS011;66757;44.024;20.456;2023-05-29T00:04:17;19.27;;;13.48;;
66169;SDS011;66757;44.024;20.456;2023-05-29T00:06:42;21.27;;;14.13;;
66169;SDS011;66757;44.024;20.456;2023-05-29T00:09:08;19.30;;;11.95;;
66169;SDS011;66757;44.024;20.456;2023-05-29T00:11:35;18.70;;;11.32;;
66169;SDS011;66757;44.024;20.456;2023-05-29T00:14:00;16.52;;;12.57;;
66169;SDS011;66757;44.024;20.456;2023-05-29T00:16:26;19.75;;;13.05;;
66169;SDS011;66757;44.024;20.456;2023-05-29T00:18:51;21.65;;;14.05;;
66169;SDS011;66757;44.024;20.456;2023-05-29T00:21:18;20.67;;;14.93;;
66169;SDS011;66757;44.024;20.456;2023-05-29T00:23:44;18.48;;;13.93;;
66169;SDS011;66757;44.024;20.456;2023-05-29T00:26:09;18.58;;;12.70;;
66169;SDS011;66757;44.024;20.456;2023-05-29T00:28:35;14.93;;;11.32;;
66169;SDS011;66757;44.024;20.456;2023-05-29T00:31:01;14.98;;;10.80;;
66169;SDS011;66757;44.024;20.456;2023-05-29T00:33:27;16.55;;;11.93;;
66169;SDS011;66757;44.024;20.456;2023-05-29T00:35:53;18.85;;;13.15;;
66169;SDS011;66757;44.024;20.456;2023-05-29T00:38:18;20.70;;;15.85;;
66169;SDS011;66757;44.024;20.456;2023-05-29T00:40:43;20.52;;;13.82;;
66169;SDS011;66757;44.024;20.456;2023-05-29T00:43:09;19.77;;;14.30;;
66169;SDS011;66757;44.024;20.456;2023-05-29T00:45:34;17.95;;;14.25;;
66169;SDS011;66757;44.024;20.456;2023-05-29T00:48:04;21.25;;;14.35;;
66169;SDS011;66757;44.024;20.456;2023-05-29T00:50:30;17.10;;;12.27;;
66169;SDS011;66757;44.024;20.456;2023-05-29T00:52:57;21.13;;;12.45;;
66169;SDS011;66757;44.024;20.456;2023-05-29T00:55:26;16.50;;;12.23;;
66169;SDS011;66757;44.024;20.456;2023-05-29T00:57:53;14.75;;;11.30;;
66169;SDS011;66757;44.024;20.456;2023-05-29T01:00:19;22.67;;;13.70;;
66169;SDS011;66757;44.024;20.456;2023-05-29T01:02:45;23.15;;;13.15;;
66169;SDS011;66757;44.024;20.456;2023-05-29T01:05:11;19.83;;;14.60;;
66169;SDS011;66757;44.024;20.456;2023-05-29T01:07:38;18.40;;;13.25;;
66169;SDS011;66757;44.024;20.456;2023-05-29T01:10:04;14.07;;;11.23;;
66169;SDS011;66757;44.024;20.456;2023-05-29T01:12:45;17.65;;;10.88;;
66169;SDS011;66757;44.024;20.456;2023-05-29T01:23:34;14.07;;;10.57;;
66169;SDS011;66757;44.024;20.456;2023-05-29T01:28:59;18.80;;;10.30;;
66169;SDS011;66757;44.024;20.456;2023-05-29T01:31:27;19.10;;;10.65;;
66169;SDS011;66757;44.024;20.456;2023-05-29T01:33:56;20.83;;;11.82;;
66169;SDS011;66757;44.024;20.456;2023-05-29T01:36:23;18.67;;;11.98;;
66169;SDS011;66757;44.024;20.456;2023-05-29T01:38:50;19.42;;;12.40;;
66169;SDS011;66757;44.024;20.456;2023-05-29T01:41:17;19.30;;;12.48;;
66169;SDS011;66757;44.024;20.456;2023-05-29T01:43:44;22.42;;;13.45;;
66169;SDS011;66757;44.024;20.456;2023-05-29T01:46:14;23.98;;;12.48;;
66169;SDS011;66757;44.024;20.456;2023-05-29T01:48:41;23.75;;;11.85;;
66169;SDS011;66757;44.024;20.456;2023-05-29T01:51:08;25.85;;;11.27;;
66169;SDS011;66757;44.024;20.456;2023-05-29T01:53:36;44.70;;;12.52;;
66169;SDS011;66757;44.024;20.456;2023-05-29T01:56:02;45.45;;;12.82;;
66169;SDS011;66757;44.024;20.456;2023-05-29T01:58:29;24.77;;;12.40;;
66169;SDS011;66757;44.024;20.456;2023-05-29T02:00:55;33.78;;;15.02;;
66169;SDS011;66757;44.024;20.456;2023-05-29T02:03:21;31.55;;;14.07;;
66169;SDS011;66757;44.024;20.456;2023-05-29T02:05:47;34.13;;;14.20;;
66169;SDS011;66757;44.024;20.456;2023-05-29T02:08:12;23.17;;;14.55;;
66169;SDS011;66757;44.024;20.456;2023-05-29T02:10:37;32.67;;;14.60;;
66169;SDS011;66757;44.024;20.456;2023-05-29T02:13:03;49.42;;;16.50;;
66169;SDS011;66757;44.024;20.456;2023-05-29T02:15:28;34.85;;;14.73;;
66169;SDS011;66757;44.024;20.456;2023-05-29T02:17:54;23.70;;;15.07;;
66169;SDS011;66757;44.024;20.456;2023-05-29T02:20:19;23.52;;;15.85;;
66169;SDS011;66757;44.024;20.456;2023-05-29T02:22:44;20.88;;;14.30;;
66169;SDS011;66757;44.024;20.456;2023-05-29T02:25:10;29.50;;;15.63;;
66169;SDS011;66757;44.024;20.456;2023-05-29T02:27:36;25.38;;;14.90;;
66169;SDS011;66757;44.024;20.456;2023-05-29T02:30:01;34.90;;;14.50;;
66169;SDS011;66757;44.024;20.456;2023-05-29T02:32:27;20.55;;;13.68;;
66169;SDS011;66757;44.024;20.456;2023-05-29T02:34:54;30.10;;;13.80;;
66169;SDS011;66757;44.024;20.456;2023-05-29T02:37:20;20.52;;;13.40;;
66169;SDS011;66757;44.024;20.456;2023-05-29T02:39:45;20.92;;;14.45;;
66169;SDS011;66757;44.024;20.456;2023-05-29T02:42:10;21.92;;;13.75;;
66169;SDS011;66757;44.024;20.456;2023-05-29T02:44:36;21.67;;;13.00;;
66169;SDS011;66757;44.024;20.456;2023-05-29T02:47:01;20.98;;;13.02;;
66169;SDS011;66757;44.024;20.456;2023-05-29T02:49:27;27.20;;;12.93;;
66169;SDS011;66757;44.024;20.456;2023-05-29T02:51:52;22.50;;;14.70;;
66169;SDS011;66757;44.024;20.456;2023-05-29T02:54:24;42.80;;;14.50;;
66169;SDS011;66757;44.024;20.456;2023-05-29T02:56:53;24.08;;;14.02;;
66169;SDS011;66757;44.024;20.456;2023-05-29T02:59:18;28.92;;;14.38;;
66169;SDS011;66757;44.024;20.456;2023-05-29T03:01:44;27.02;;;14.93;;
66169;SDS011;66757;44.024;20.456;2023-05-29T03:04:10;50.58;;;14.88;;
66169;SDS011;66757;44.024;20.456;2023-05-29T03:06:36;22.67;;;14.63;;
66169;SDS011;66757;44.024;20.456;2023-05-29T03:09:02;21.52;;;14.07;;
66169;SDS011;66757;44.024;20.456;2023-05-29T03:11:29;18.25;;;13.20;;
66169;SDS011;66757;44.024;20.456;2023-05-29T03:13:55;21.67;;;12.25;;
66169;SDS011;66757;44.024;20.456;2023-05-29T03:16:21;31.63;;;12.32;;
66169;SDS011;66757;44.024;20.456;2023-05-29T03:18:46;22.52;;;11.50;;
66169;SDS011;66757;44.024;20.456;2023-05-29T03:21:12;17.73;;;12.20;;
66169;SDS011;66757;44.024;20.456;2023-05-29T03:23:37;29.40;;;11.88;;
66169;SDS011;66757;44.024;20.456;2023-05-29T03:26:03;26.70;;;13.07;;
66169;SDS011;66757;44.024;20.456;2023-05-29T03:28:29;22.23;;;12.35;;
66169;SDS011;66757;44.024;20.456;2023-05-29T03:30:54;32.30;;;13.98;;
66169;SDS011;66757;44.024;20.456;2023-05-29T03:33:20;15.52;;;12.23;;
66169;SDS011;66757;44.024;20.456;2023-05-29T03:35:45;16.60;;;11.57;;
66169;SDS011;66757;44.024;20.456;2023-05-29T03:38:11;20.15;;;11.70;;
66169;SDS011;66757;44.024;20.456;2023-05-29T03:40:36;16.00;;;11.68;;
66169;SDS011;66757;44.024;20.456;2023-05-29T03:43:02;14.38;;;10.63;;
66169;SDS011;66757;44.024;20.456;2023-05-29T03:45:27;19.77;;;10.75;;
66169;SDS011;66757;44.024;20.456;2023-05-29T03:47:53;12.63;;;10.18;;
66169;SDS011;66757;44.024;20.456;2023-05-29T03:50:18;13.32;;;10.02;;
66169;SDS011;66757;44.024;20.456;2023-05-29T03:52:43;16.38;;;9.95;;
66169;SDS011;66757;44.024;20.456;2023-05-29T03:55:09;25.77;;;11.80;;
66169;SDS011;66757;44.024;20.456;2023-05-29T03:57:39;18.60;;;12.00;;
66169;SDS011;66757;44.024;20.456;2023-05-29T04:00:06;20.67;;;12.75;;
66169;SDS011;66757;44.024;20.456;2023-05-29T04:02:36;14.13;;;10.95;;
66169;SDS011;66757;44.024;20.456;2023-05-29T04:05:05;18.48;;;11.85;;
66169;SDS011;66757;44.024;20.456;2023-05-29T04:07:41;17.92;;;10.40;;
66169;SDS011;66757;44.024;20.456;2023-05-29T04:10:07;17.27;;;11.15;;
66169;SDS011;66757;44.024;20.456;2023-05-29T04:12:33;24.60;;;11.82;;
66169;SDS011;66757;44.024;20.456;2023-05-29T04:14:58;22.45;;;12.75;;
66169;SDS011;66757;44.024;20.456;2023-05-29T04:17:24;28.38;;;11.20;;
66169;SDS011;66757;44.024;20.456;2023-05-29T04:19:49;17.90;;;12.40;;
66169;SDS011;66757;44.024;20.456;2023-05-29T04:22:15;28.90;;;12.43;;
66169;SDS011;66757;44.024;20.456;2023-05-29T04:24:41;15.85;;;11.77;;
66169;SDS011;66757;44.024;20.456;2023-05-29T04:27:09;19.77;;;11.82;;
66169;SDS011;66757;44.024;20.456;2023-05-29T04:29:40;22.40;;;11.88;;
66169;SDS011;66757;44.024;20.456;2023-05-29T04:32:07;18.90;;;12.52;;
66169;SDS011;66757;44.024;20.456;2023-05-29T04:34:34;25.50;;;12.35;;
66169;SDS011;66757;44.024;20.456;2023-05-29T04:37:00;26.80;;;12.07;;
66169;SDS011;66757;44.024;20.456;2023-05-29T04:39:28;25.60;;;11.65;;
66169;SDS011;66757;44.024;20.456;2023-05-29T04:41:53;32.35;;;13.13;;
66169;SDS011;66757;44.024;20.456;2023-05-29T04:44:18;13.95;;;11.20;;
66169;SDS011;66757;44.024;20.456;2023-05-29T04:46:44;17.52;;;10.95;;
66169;SDS011;66757;44.024;20.456;2023-05-29T04:49:10;20.80;;;10.43;;
66169;SDS011;66757;44.024;20.456;2023-05-29T04:51:38;22.50;;;9.88;;
66169;SDS011;66757;44.024;20.456;2023-05-29T04:54:05;12.65;;;8.50;;
66169;SDS011;66757;44.024;20.456;2023-05-29T04:56:32;14.25;;;8.38;;
66169;SDS011;66757;44.024;20.456;2023-05-29T04:58:57;16.70;;;8.13;;
66169;SDS011;66757;44.024;20.456;2023-05-29T05:01:23;9.77;;;7.18;;
66169;SDS011;66757;44.024;20.456;2023-05-29T05:03:49;9.82;;;7.10;;
66169;SDS011;66757;44.024;20.456;2023-05-29T05:06:15;12.85;;;7.00;;
66169;SDS011;66757;44.024;20.456;2023-05-29T05:08:42;9.15;;;7.95;;
66169;SDS011;66757;44.024;20.456;2023-05-29T05:11:07;9.10;;;6.30;;
66169;SDS011;66757;44.024;20.456;2023-05-29T05:13:33;7.78;;;6.43;;
66169;SDS011;66757;44.024;20.456;2023-05-29T05:15:58;7.80;;;6.88;;
66169;SDS011;66757;44.024;20.456;2023-05-29T05:18:24;11.48;;;6.20;;
66169;SDS011;66757;44.024;20.456;2023-05-29T05:20:49;8.27;;;7.28;;
66169;SDS011;66757;44.024;20.456;2023-05-29T05:23:15;7.53;;;5.13;;
66169;SDS011;66757;44.024;20.456;2023-05-29T05:25:40;9.30;;;6.13;;
66169;SDS011;66757;44.024;20.456;2023-05-29T05:28:06;13.43;;;6.50;;
66169;SDS011;66757;44.024;20.456;2023-05-29T05:30:33;9.82;;;6.18;;
66169;SDS011;66757;44.024;20.456;2023-05-29T05:32:58;7.45;;;6.07;;
66169;SDS011;66757;44.024;20.456;2023-05-29T05:35:24;17.00;;;7.72;;
66169;SDS011;66757;44.024;20.456;2023-05-29T05:37:49;7.65;;;6.00;;
66169;SDS011;66757;44.024;20.456;2023-05-29T05:40:15;6.60;;;4.93;;
66169;SDS011;66757;44.024;20.456;2023-05-29T05:42:40;8.50;;;5.68;;
66169;SDS011;66757;44.024;20.456;2023-05-29T05:45:06;10.52;;;5.80;;
66169;SDS011;66757;44.024;20.456;2023-05-29T05:47:32;9.73;;;5.63;;
66169;SDS011;66757;44.024;20.456;2023-05-29T05:49:58;6.90;;;5.30;;
66169;SDS011;66757;44.024;20.456;2023-05-29T05:52:24;7.68;;;6.03;;
66169;SDS011;66757;44.024;20.456;2023-05-29T05:54:51;12.18;;;6.32;;
66169;SDS011;66757;44.024;20.456;2023-05-29T05:57:16;7.28;;;6.15;;
66169;SDS011;66757;44.024;20.456;2023-05-29T05:59:42;7.53;;;6.35;;
66169;SDS011;66757;44.024;20.456;2023-05-29T06:02:08;7.18;;;6.43;;
66169;SDS011;66757;44.024;20.456;2023-05-29T06:04:33;9.50;;;6.60;;
66169;SDS011;66757;44.024;20.456;2023-05-29T06:06:58;11.43;;;7.80;;
66169;SDS011;66757;44.024;20.456;2023-05-29T06:09:24;12.52;;;7.68;;
66169;SDS011;66757;44.024;20.456;2023-05-29T06:11:50;14.98;;;7.53;;
66169;SDS011;66757;44.024;20.456;2023-05-29T06:14:16;11.75;;;7.80;;
66169;SDS011;66757;44.024;20.456;2023-05-29T06:16:41;10.93;;;8.10;;
66169;SDS011;66757;44.024;20.456;2023-05-29T06:19:08;10.40;;;7.85;;
66169;SDS011;66757;44.024;20.456;2023-05-29T06:21:34;13.65;;;8.90;;
66169;SDS011;66757;44.024;20.456;2023-05-29T06:23:59;10.82;;;8.73;;
66169;SDS011;66757;44.024;20.456;2023-05-29T06:26:25;13.52;;;9.57;;
66169;SDS011;66757;44.024;20.456;2023-05-29T06:28:52;14.98;;;10.48;;
66169;SDS011;66757;44.024;20.456;2023-05-29T06:31:18;11.45;;;9.75;;
66169;SDS011;66757;44.024;20.456;2023-05-29T06:33:44;14.43;;;10.43;;
66169;SDS011;66757;44.024;20.456;2023-05-29T06:36:10;14.90;;;10.32;;
66169;SDS011;66757;44.024;20.456;2023-05-29T06:38:35;14.82;;;9.95;;
66169;SDS011;66757;44.024;20.456;2023-05-29T06:41:01;12.63;;;9.32;;
66169;SDS011;66757;44.024;20.456;2023-05-29T06:43:28;11.60;;;9.70;;
66169;SDS011;66757;44.024;20.456;2023-05-29T06:45:54;11.65;;;8.80;;
66169;SDS011;66757;44.024;20.456;2023-05-29T06:48:19;11.70;;;9.13;;
66169;SDS011;66757;44.024;20.456;2023-05-29T06:50:46;13.00;;;9.80;;
66169;SDS011;66757;44.024;20.456;2023-05-29T06:53:12;16.50;;;9.25;;
66169;SDS011;66757;44.024;20.456;2023-05-29T06:55:38;15.40;;;10.25;;
66169;SDS011;66757;44.024;20.456;2023-05-29T06:58:05;14.60;;;10.25;;
66169;SDS011;66757;44.024;20.456;2023-05-29T07:00:31;31.35;;;12.40;;
66169;SDS011;66757;44.024;20.456;2023-05-29T07:02:56;10.82;;;9.63;;
66169;SDS011;66757;44.024;20.456;2023-05-29T07:05:21;11.45;;;9.23;;
66169;SDS011;66757;44.024;20.456;2023-05-29T07:07:47;24.15;;;11.23;;
66169;SDS011;66757;44.024;20.456;2023-05-29T07:10:13;10.23;;;9.20;;
66169;SDS011;66757;44.024;20.456;2023-05-29T07:12:38;10.07;;;8.23;;
66169;SDS011;66757;44.024;20.456;2023-05-29T07:15:04;9.52;;;8.63;;
66169;SDS011;66757;44.024;20.456;2023-05-29T07:17:30;10.00;;;9.02;;
66169;SDS011;66757;44.024;20.456;2023-05-29T07:19:55;10.60;;;9.25;;
66169;SDS011;66757;44.024;20.456;2023-05-29T07:22:21;9.02;;;8.13;;
66169;SDS011;66757;44.024;20.456;2023-05-29T07:24:46;8.60;;;7.22;;
66169;SDS011;66757;44.024;20.456;2023-05-29T07:27:11;8.68;;;7.32;;
66169;SDS011;66757;44.024;20.456;2023-05-29T07:29:37;11.98;;;7.40;;
66169;SDS011;66757;44.024;20.456;2023-05-29T07:32:02;8.90;;;6.90;;
66169;SDS011;66757;44.024;20.456;2023-05-29T07:34:28;8.35;;;6.43;;
66169;SDS011;66757;44.024;20.456;2023-05-29T07:36:57;7.43;;;6.50;;
66169;SDS011;66757;44.024;20.456;2023-05-29T07:39:25;5.63;;;5.10;;
66169;SDS011;66757;44.024;20.456;2023-05-29T07:41:51;8.25;;;6.15;;
66169;SDS011;66757;44.024;20.456;2023-05-29T07:44:16;7.95;;;6.70;;
66169;SDS011;66757;44.024;20.456;2023-05-29T07:46:42;7.00;;;5.78;;
66169;SDS011;66757;44.024;20.456;2023-05-29T07:49:07;5.88;;;5.32;;
66169;SDS011;66757;44.024;20.456;2023-05-29T07:51:33;5.95;;;4.65;;
66169;SDS011;66757;44.024;20.456;2023-05-29T07:53:58;5.90;;;5.22;;
66169;SDS011;66757;44.024;20.456;2023-05-29T07:56:23;5.53;;;4.95;;
66169;SDS011;66757;44.024;20.456;2023-05-29T07:58:50;5.70;;;5.10;;
66169;SDS011;66757;44.024;20.456;2023-05-29T08:01:18;7.28;;;5.55;;
66169;SDS011;66757;44.024;20.456;2023-05-29T08:03:44;5.97;;;5.43;;
66169;SDS011;66757;44.024;20.456;2023-05-29T08:06:10;6.57;;;5.88;;
66169;SDS011;66757;44.024;20.456;2023-05-29T08:08:35;7.43;;;6.20;;
66169;SDS011;66757;44.024;20.456;2023-05-29T08:11:01;6.35;;;5.60;;
66169;SDS011;66757;44.024;20.456;2023-05-29T08:13:26;7.38;;;6.65;;
66169;SDS011;66757;44.024;20.456;2023-05-29T08:15:52;5.68;;;5.03;;
66169;SDS011;66757;44.024;20.456;2023-05-29T08:18:18;11.55;;;6.22;;
66169;SDS011;66757;44.024;20.456;2023-05-29T08:20:43;6.43;;;5.07;;
66169;SDS011;66757;44.024;20.456;2023-05-29T08:23:10;4.93;;;4.53;;
66169;SDS011;66757;44.024;20.456;2023-05-29T08:25:35;5.97;;;4.60;;
66169;SDS011;66757;44.024;20.456;2023-05-29T08:28:01;4.60;;;4.20;;
66169;SDS011;66757;44.024;20.456;2023-05-29T08:30:26;6.00;;;4.70;;
66169;SDS011;66757;44.024;20.456;2023-05-29T08:32:52;5.00;;;3.88;;
66169;SDS011;66757;44.024;20.456;2023-05-29T08:35:17;5.13;;;4.50;;
66169;SDS011;66757;44.024;20.456;2023-05-29T08:37:43;5.28;;;4.55;;
66169;SDS011;66757;44.024;20.456;2023-05-29T08:40:08;7.60;;;5.28;;
66169;SDS011;66757;44.024;20.456;2023-05-29T08:42:46;4.68;;;4.20;;
66169;SDS011;66757;44.024;20.456;2023-05-29T08:45:16;4.88;;;4.38;;
66169;SDS011;66757;44.024;20.456;2023-05-29T08:47:43;6.50;;;4.60;;
66169;SDS011;66757;44.024;20.456;2023-05-29T08:50:10;4.32;;;3.85;;
66169;SDS011;66757;44.024;20.456;2023-05-29T08:52:35;4.05;;;3.65;;
66169;SDS011;66757;44.024;20.456;2023-05-29T08:55:02;4.13;;;3.72;;
66169;SDS011;66757;44.024;20.456;2023-05-29T08:57:29;4.97;;;4.47;;
66169;SDS011;66757;44.024;20.456;2023-05-29T08:59:55;8.07;;;4.80;;
66169;SDS011;66757;44.024;20.456;2023-05-29T09:02:21;6.80;;;4.38;;
66169;SDS011;66757;44.024;20.456;2023-05-29T09:04:47;6.15;;;4.20;;
66169;SDS011;66757;44.024;20.456;2023-05-29T09:07:14;4.88;;;4.32;;
66169;SDS011;66757;44.024;20.456;2023-05-29T09:09:40;4.47;;;4.07;;
66169;SDS011;66757;44.024;20.456;2023-05-29T09:12:06;8.07;;;3.33;;
66169;SDS011;66757;44.024;20.456;2023-05-29T09:14:36;4.47;;;3.60;;
66169;SDS011;66757;44.024;20.456;2023-05-29T09:17:10;3.45;;;3.15;;
66169;SDS011;66757;44.024;20.456;2023-05-29T09:19:36;3.20;;;2.95;;
66169;SDS011;66757;44.024;20.456;2023-05-29T09:22:06;3.35;;;3.05;;
66169;SDS011;66757;44.024;20.456;2023-05-29T09:24:33;4.40;;;3.15;;
66169;SDS011;66757;44.024;20.456;2023-05-29T09:27:00;4.97;;;3.40;;
66169;SDS011;66757;44.024;20.456;2023-05-29T09:29:26;4.03;;;3.60;;
66169;SDS011;66757;44.024;20.456;2023-05-29T09:31:52;4.05;;;3.08;;
66169;SDS011;66757;44.024;20.456;2023-05-29T09:34:18;4.97;;;3.20;;
66169;SDS011;66757;44.024;20.456;2023-05-29T09:36:43;6.13;;;3.38;;
66169;SDS011;66757;44.024;20.456;2023-05-29T09:39:09;4.75;;;3.20;;
66169;SDS011;66757;44.024;20.456;2023-05-29T09:41:45;3.80;;;3.20;;
66169;SDS011;66757;44.024;20.456;2023-05-29T09:44:13;5.03;;;3.97;;
66169;SDS011;66757;44.024;20.456;2023-05-29T09:46:40;4.60;;;4.20;;
66169;SDS011;66757;44.024;20.456;2023-05-29T09:49:11;5.35;;;4.32;;
66169;SDS011;66757;44.024;20.456;2023-05-29T09:51:37;5.63;;;3.58;;
66169;SDS011;66757;44.024;20.456;2023-05-29T09:54:15;4.60;;;3.83;;
66169;SDS011;66757;44.024;20.456;2023-05-29T09:56:45;6.38;;;4.53;;
66169;SDS011;66757;44.024;20.456;2023-05-29T09:59:11;4.60;;;3.03;;
66169;SDS011;66757;44.024;20.456;2023-05-29T10:01:44;5.25;;;3.85;;
66169;SDS011;66757;44.024;20.456;2023-05-29T10:04:12;4.35;;;3.28;;
66169;SDS011;66757;44.024;20.456;2023-05-29T10:06:41;4.78;;;3.00;;
66169;SDS011;66757;44.024;20.456;2023-05-29T10:09:10;4.15;;;3.25;;
66169;SDS011;66757;44.024;20.456;2023-05-29T10:11:39;3.22;;;2.50;;
66169;SDS011;66757;44.024;20.456;2023-05-29T10:14:08;3.00;;;2.65;;
66169;SDS011;66757;44.024;20.456;2023-05-29T10:16:36;2.40;;;2.20;;
66169;SDS011;66757;44.024;20.456;2023-05-29T10:19:08;7.07;;;2.45;;
66169;SDS011;66757;44.024;20.456;2023-05-29T10:21:37;5.93;;;2.38;;
66169;SDS011;66757;44.024;20.456;2023-05-29T10:24:05;3.95;;;3.05;;
66169;SDS011;66757;44.024;20.456;2023-05-29T10:26:34;5.43;;;3.10;;
66169;SDS011;66757;44.024;20.456;2023-05-29T10:40:03;6.07;;;4.15;;
66169;SDS011;66757;44.024;20.456;2023-05-29T10:42:44;7.95;;;3.80;;
66169;SDS011;66757;44.024;20.456;2023-05-29T10:45:10;4.82;;;2.85;;
66169;SDS011;66757;44.024;20.456;2023-05-29T10:47:38;4.25;;;2.90;;
66169;SDS011;66757;44.024;20.456;2023-05-29T10:50:04;3.58;;;1.90;;
66169;SDS011;66757;44.024;20.456;2023-05-29T10:52:33;3.58;;;2.17;;
66169;SDS011;66757;44.024;20.456;2023-05-29T10:54:59;5.05;;;2.25;;
66169;SDS011;66757;44.024;20.456;2023-05-29T10:57:28;3.72;;;2.97;;
66169;SDS011;66757;44.024;20.456;2023-05-29T10:59:58;3.65;;;3.38;;
66169;SDS011;66757;44.024;20.456;2023-05-29T11:02:37;3.58;;;3.00;;
66169;SDS011;66757;44.024;20.456;2023-05-29T11:05:04;3.60;;;3.00;;
66169;SDS011;66757;44.024;20.456;2023-05-29T11:07:39;5.13;;;3.45;;
66169;SDS011;66757;44.024;20.456;2023-05-29T11:10:18;3.85;;;3.13;;
66169;SDS011;66757;44.024;20.456;2023-05-29T11:13:25;5.32;;;4.20;;
66169;SDS011;66757;44.024;20.456;2023-05-29T11:18:43;3.33;;;2.63;;
66169;SDS011;66757;44.024;20.456;2023-05-29T11:21:29;4.93;;;2.47;;
66169;SDS011;66757;44.024;20.456;2023-05-29T11:23:55;3.20;;;1.95;;
66169;SDS011;66757;44.024;20.456;2023-05-29T11:26:25;3.70;;;2.65;;
66169;SDS011;66757;44.024;20.456;2023-05-29T11:28:52;2.85;;;2.30;;
66169;SDS011;66757;44.024;20.456;2023-05-29T11:31:17;4.70;;;2.38;;
66169;SDS011;66757;44.024;20.456;2023-05-29T11:33:47;5.18;;;1.90;;
66169;SDS011;66757;44.024;20.456;2023-05-29T11:36:21;9.77;;;3.25;;
66169;SDS011;66757;44.024;20.456;2023-05-29T11:38:47;4.50;;;2.22;;
66169;SDS011;66757;44.024;20.456;2023-05-29T11:41:13;4.15;;;2.38;;
66169;SDS011;66757;44.024;20.456;2023-05-29T11:43:38;9.30;;;3.83;;
66169;SDS011;66757;44.024;20.456;2023-05-29T11:51:25;5.72;;;3.17;;
66169;SDS011;66757;44.024;20.456;2023-05-29T11:53:51;5.47;;;2.67;;
66169;SDS011;66757;44.024;20.456;2023-05-29T11:56:18;3.60;;;3.30;;
66169;SDS011;66757;44.024;20.456;2023-05-29T11:58:43;3.08;;;2.40;;
66169;SDS011;66757;44.024;20.456;2023-05-29T12:01:10;6.30;;;2.95;;
66169;SDS011;66757;44.024;20.456;2023-05-29T12:03:41;2.70;;;2.47;;
66169;SDS011;66757;44.024;20.456;2023-05-29T12:06:08;3.17;;;2.88;;
66169;SDS011;66757;44.024;20.456;2023-05-29T12:08:36;2.67;;;2.33;;
66169;SDS011;66757;44.024;20.456;2023-05-29T12:11:02;4.90;;;3.10;;
66169;SDS011;66757;44.024;20.456;2023-05-29T12:13:28;3.20;;;2.45;;
66169;SDS011;66757;44.024;20.456;2023-05-29T12:15:57;4.55;;;2.30;;
66169;SDS011;66757;44.024;20.456;2023-05-29T12:18:25;2.85;;;2.40;;
66169;SDS011;66757;44.024;20.456;2023-05-29T12:20:56;4.25;;;2.53;;
66169;SDS011;66757;44.024;20.456;2023-05-29T12:23:22;4.93;;;2.97;;
66169;SDS011;66757;44.024;20.456;2023-05-29T12:25:50;3.90;;;2.40;;
66169;SDS011;66757;44.024;20.456;2023-05-29T12:28:17;3.40;;;3.10;;
66169;SDS011;66757;44.024;20.456;2023-05-29T12:30:44;5.30;;;3.22;;
66169;SDS011;66757;44.024;20.456;2023-05-29T12:33:30;3.20;;;2.85;;
66169;SDS011;66757;44.024;20.456;2023-05-29T12:36:07;3.42;;;2.78;;
66169;SDS011;66757;44.024;20.456;2023-05-29T12:38:47;3.80;;;2.90;;
66169;SDS011;66757;44.024;20.456;2023-05-29T12:41:23;4.07;;;2.72;;
66169;SDS011;66757;44.024;20.456;2023-05-29T12:43:55;2.78;;;2.17;;
66169;SDS011;66757;44.024;20.456;2023-05-29T12:46:25;2.45;;;2.00;;
66169;SDS011;66757;44.024;20.456;2023-05-29T12:48:52;2.25;;;1.80;;
66169;SDS011;66757;44.024;20.456;2023-05-29T12:51:27;3.60;;;2.40;;
66169;SDS011;66757;44.024;20.456;2023-05-29T12:53:53;4.38;;;2.50;;
66169;SDS011;66757;44.024;20.456;2023-05-29T12:56:23;2.92;;;1.75;;
66169;SDS011;66757;44.024;20.456;2023-05-29T12:58:51;3.05;;;2.35;;
66169;SDS011;66757;44.024;20.456;2023-05-29T13:01:17;4.13;;;3.08;;
66169;SDS011;66757;44.024;20.456;2023-05-29T13:03:42;3.63;;;3.30;;
66169;SDS011;66757;44.024;20.456;2023-05-29T13:06:08;4.45;;;2.20;;
66169;SDS011;66757;44.024;20.456;2023-05-29T13:08:34;4.10;;;2.22;;
66169;SDS011;66757;44.024;20.456;2023-05-29T13:10:59;3.65;;;3.08;;
66169;SDS011;66757;44.024;20.456;2023-05-29T13:13:25;4.90;;;3.63;;
66169;SDS011;66757;44.024;20.456;2023-05-29T13:15:50;4.38;;;2.70;;
66169;SDS011;66757;44.024;20.456;2023-05-29T13:18:16;4.53;;;3.22;;
66169;SDS011;66757;44.024;20.456;2023-05-29T13:20:41;4.68;;;3.08;;
66169;SDS011;66757;44.024;20.456;2023-05-29T13:23:06;2.83;;;2.10;;
66169;SDS011;66757;44.024;20.456;2023-05-29T13:25:34;2.47;;;2.05;;
66169;SDS011;66757;44.024;20.456;2023-05-29T13:27:59;3.30;;;2.47;;
66169;SDS011;66757;44.024;20.456;2023-05-29T13:30:25;5.25;;;2.08;;
66169;SDS011;66757;44.024;20.456;2023-05-29T13:32:51;4.85;;;3.47;;
66169;SDS011;66757;44.024;20.456;2023-05-29T13:35:19;8.80;;;5.85;;
66169;SDS011;66757;44.024;20.456;2023-05-29T13:37:45;7.60;;;2.78;;
66169;SDS011;66757;44.024;20.456;2023-05-29T13:40:11;6.53;;;2.97;;
66169;SDS011;66757;44.024;20.456;2023-05-29T13:42:40;4.32;;;3.08;;
66169;SDS011;66757;44.024;20.456;2023-05-29T13:45:06;4.68;;;3.20;;
66169;SDS011;66757;44.024;20.456;2023-05-29T13:47:33;6.55;;;3.75;;
66169;SDS011;66757;44.024;20.456;2023-05-29T13:49:59;6.47;;;4.57;;
66169;SDS011;66757;44.024;20.456;2023-05-29T13:52:25;4.75;;;4.22;;
66169;SDS011;66757;44.024;20.456;2023-05-29T13:54:51;2.80;;;2.45;;
66169;SDS011;66757;44.024;20.456;2023-05-29T13:57:16;5.68;;;4.35;;
66169;SDS011;66757;44.024;20.456;2023-05-29T13:59:42;5.50;;;4.32;;
66169;SDS011;66757;44.024;20.456;2023-05-29T14:02:08;7.93;;;6.35;;
66169;SDS011;66757;44.024;20.456;2023-05-29T14:04:34;12.93;;;7.20;;
66169;SDS011;66757;44.024;20.456;2023-05-29T14:06:59;5.07;;;2.97;;
66169;SDS011;66757;44.024;20.456;2023-05-29T14:09:25;3.47;;;2.38;;
66169;SDS011;66757;44.024;20.456;2023-05-29T14:11:54;10.77;;;9.75;;
66169;SDS011;66757;44.024;20.456;2023-05-29T14:14:20;4.72;;;3.72;;
66169;SDS011;66757;44.024;20.456;2023-05-29T14:16:46;4.10;;;3.70;;
66169;SDS011;66757;44.024;20.456;2023-05-29T14:19:12;3.28;;;2.40;;
66169;SDS011;66757;44.024;20.456;2023-05-29T14:21:38;4.45;;;3.10;;
66169;SDS011;66757;44.024;20.456;2023-05-29T14:24:03;4.55;;;3.05;;
66169;SDS011;66757;44.024;20.456;2023-05-29T14:26:29;2.92;;;2.33;;
66169;SDS011;66757;44.024;20.456;2023-05-29T14:28:55;3.85;;;3.17;;
66169;SDS011;66757;44.024;20.456;2023-05-29T14:31:21;3.30;;;1.25;;
66169;SDS011;66757;44.024;20.456;2023-05-29T14:33:47;2.60;;;2.08;;
66169;SDS011;66757;44.024;20.456;2023-05-29T14:36:12;2.22;;;1.48;;
66169;SDS011;66757;44.024;20.456;2023-05-29T14:38:37;2.63;;;1.25;;
66169;SDS011;66757;44.024;20.456;2023-05-29T14:41:03;3.65;;;1.25;;
66169;SDS011;66757;44.024;20.456;2023-05-29T14:43:29;3.17;;;1.40;;
66169;SDS011;66757;44.024;20.456;2023-05-29T14:45:54;3.22;;;1.60;;
66169;SDS011;66757;44.024;20.456;2023-05-29T14:48:20;6.63;;;1.90;;
66169;SDS011;66757;44.024;20.456;2023-05-29T14:50:47;2.65;;;2.20;;
66169;SDS011;66757;44.024;20.456;2023-05-29T14:53:12;2.30;;;2.00;;